디시인사이드 갤러리

리듬게임 갤러리

갤러리 이슈박스, 최근방문 갤러리

갤러리 본문 영역

과로사 ㅁㅊ나앱에서 작성

ㅇㅇ(175.223) 2020.07.03 18:17:14
조회 193 추천 0 댓글 2

추천 비추천

0

고정닉 0

2

댓글 영역

전체 리플 0
등록순정렬 기준선택

하단 갤러리 리스트 영역

왼쪽 컨텐츠 영역

갤러리 리스트 영역

갤러리 리스트
번호 제목 글쓴이 작성일 조회 추천
이슈 월간디시 8월호 : 반갑다 논란아 운영자 20/07/31 - -
설문 '나 5cm만 주라' 키 커서 부러운 여자 아이돌은? 운영자 20/08/04 - -
공지 리듬게임에 관련된 사진과 내용을 올려주시기 바랍니다. [745] 운영자 06.08.29 10673530 207
11140281 11랩 뭐냐 신곡 바나리11갤로그로 이동합니다. 10:05 17 0
11140280 인투더매드니스 작곡가 근황 RottenBlotch갤로그로 이동합니다. 10:05 20 0
11140279 콘마이 일안해????? [1] Flexin(210.91) 10:05 14 0
11140278 디디알 서드 산 사람이 있긴있네 [1] ㅇㅇ(59.28) 10:05 24 0
11140277 매드니스 뭔곡임 [2] xiPOId갤로그로 이동합니다. 10:04 17 0
11140276 신곡 레벨 떳다고함 [3] 츠다냥갤로그로 이동합니다. 10:04 36 1
11140275 차 사고 3년 86000키로 탔는데요 [1] 팥2(39.7) 10:04 11 0
11140274 Into the Madness 11렙 [1] ㅇㅇ(61.254) 10:03 21 0
11140273 개빡치네시발ㅋㅋ [2] 말걸리기장인갤로그로 이동합니다. 10:03 20 0
11140272 여러분의 의견에 따라 오락실을 안가기로 결정했습니다.. [3] 꼰마갤로그로 이동합니다. 10:02 35 0
11140271 오늘 육지로 돌아가는데요 [4] 팥2(39.7) 10:02 16 0
11140270 휴게실 갈 때마다 맨날 보이는 직원이 있다. [5] blurtic갤로그로 이동합니다. 09:57 50 0
11140269 와 17일에 출근 안해도 된다 [3] HPMP갤로그로 이동합니다. 09:56 36 0
11140268 ㅎㅇ [6] 꼰마갤로그로 이동합니다. 09:56 44 0
11140267 수건 한번쓰면 안마름 빨래 절대 안 마름 [1] 뉴욕대공황갤로그로 이동합니다. 09:54 39 0
11140266 알바구하기졸라애매하네 [1] 정왕동부엉이갤로그로 이동합니다. 09:50 19 0
11140265 형이 내 얼굴 보더니 피부과 가라고 난리침 [7] 갓재삼(175.200) 09:49 47 0
11140264 버튼 존나박힘 [4] 바나리11갤로그로 이동합니다. 09:46 51 0
11140263 치과갓다가신곡한판뚜들겨보고집가야지 [2] 츠다냥갤로그로 이동합니다. 09:45 29 0
11140262 수강신청해보고싶네 [1] 말걸리기장인갤로그로 이동합니다. 09:42 18 0
11140261 평일아침부터오락이라니제정신이야너네들어????? [14] 츠다냥갤로그로 이동합니다. 09:38 56 0
11140260 수강신청 약 20분전 [2] 퐁퐁챵갤로그로 이동합니다. 09:37 28 0
11140259 갈까요? [2] 5123874갤로그로 이동합니다. 09:37 18 0
11140258 게임디엘리베이터앞인데시메가들림 말걸리기장인갤로그로 이동합니다. 09:35 21 0
11140257 나는돈도없고 하루벌어하루먹고살기바쁜데 [2] 리츠코의새우갤로그로 이동합니다. 09:33 37 0
11140256 29분후기타도라신규프레앙 [1] 말걸리기장인갤로그로 이동합니다. 09:31 21 0
11140255 안녕 [1] 홍예빈갤로그로 이동합니다. 09:30 14 0
11140254 우리1 우리2 어디 구기체가 나은가요 [6] MISO!#갤로그로 이동합니다. 09:30 39 0
11140253 일어나니 개장갈시간 에어갓갤로그로 이동합니다. 09:29 13 0
11140252 중독자새끼들 일도안하고 오락실부터쳐가는앰생들인가 [3] 리츠코의새우갤로그로 이동합니다. 09:28 36 0
11140251 븜스재활중 이나바메구루갤로그로 이동합니다. 09:27 13 0
11140250 10시까지 손풀고 바로 해금하는 방송 [1] 바나리11갤로그로 이동합니다. 09:22 26 0
11140249 주안 갈려고 했었는데 [4] 게메즈낙갤로그로 이동합니다. 09:18 33 0
11140248 이시간에 오락실을 가는사람이있을수가잇나?????? [3] MISO!#갤로그로 이동합니다. 09:13 31 0
11140247 울악장 기타랑 똑같으면 콘 살만하지 빅사실맨갤로그로 이동합니다. 09:11 19 0
11140246 기타콘 30만운임? 니엔테갤로그로 이동합니다. 09:08 17 0
11140245 비오는데 왤케 더움 [2] Fuckbox☆Loliland갤로그로 이동합니다. 09:08 20 0
11140244 집단 게이 동영상 [3] 바나리11갤로그로 이동합니다. 09:02 68 0
11140243 포제션 변속구간 시발 [5] ㅇㅇ(1.247) 08:56 54 0
11140242 합법로리 화학맨갤로그로 이동합니다. 08:56 49 0
11140241 쿨됐 롤이 [2] 케톤갤로그로 이동합니다. 08:52 38 0
11140240 아니 이시간에 왔는데 마이마이하고있는사람은 뭐냐 ㅋㅋㅋㅋㅋㅋㅋ [5] 바나리11갤로그로 이동합니다. 08:52 61 0
11140239 따오 기타콘 가격 289딸라 라고 올렸네 [5] kinetic갤로그로 이동합니다. 08:46 94 0
11140238 시무르그 어렵네 ㅇㅇ(223.62) 08:45 18 0
11140237 사볼0코인을위해 에버라를 포기했다 [2] pp갤로그로 이동합니다. 08:45 28 0
11140236 따오기타콘 가격 어매없을것같은데 [3] Flexin(210.91) 08:40 50 0
11140235 연동해금같은 ㅈ같은 이벤트 대체 누가 기획하냐 [5] 갓재삼(175.200) 08:36 46 0
11140234 따오콘좀 두들겨보고싶네 [2] 옾션갤로그로 이동합니다. 08:31 54 0
11140233 따스 업뎃되면 바로하고싶은데 출근.. yen(175.223) 08:31 12 0
갤러리 내부 검색
전체게시물 정렬 옵션

오른쪽 컨텐츠 영역

힛(HIT)NEW

그때 그 힛

1/3